Alliance, NE

2:14 PM MST on February 27, 2015 (GMT -0700)
Alliance Municipal | Change Station
CLOSE
Current Station
Airport
Location: Alliance,
Elevation: 3930 ft
Nearby Weather Stations

Elev 3930 ft 42.06 °N, 102.80 °W | Updated 21 minutes ago

Overcast
Overcast
19 °F
Feels Like 2 °F
N
23
Wind Variable Wind from South
Gusts 32 mph

Today
High -- | Low -- °F
--% Chance of Precip.
Yesterday
High -- | Low -- °F
Precip. -- in
6:30 AM 5:39 PM
Waxing Gibbous, 71% visible
Pressure 30.25 in
Visibility 3.0 miles
Clouds Few 1900 ft
Scattered Clouds 2400 ft
Overcast 3500 ft
Windchill 2 °F
Dew Point 11 °F
Humidity 71%
Rainfall 0.00 in
Snow Depth Not available.
UV 1 out of 12
Pollen .50 out of 12
Air Quality Not available.
Flu Activity Not available.
METAR KAIA 272053Z AUTO 17020G28KT 3SM -SN FEW019 SCT024 OVC035 M07/M12 A3005 RMK AO2 PK WND 16031/1957 SNB29 SLP241 P0000 60000 T10721117 56028

More Conditions Fewer Conditions

Pressure 30.25 in
Visibility 3.0 miles
Clouds Few 1900 ft
Scattered Clouds 2400 ft
Overcast 3500 ft
Windchill 2 °F
Dew Point 11 °F
Humidity 71%
Rainfall 0.00 in
Snow Depth Not available.
UV 1 out of 12
Pollen .50 out of 12
Air Quality Not available.
Flu Activity Not available.
METAR KAIA 272053Z AUTO 17020G28KT 3SM -SN FEW019 SCT024 OVC035 M07/M12 A3005 RMK AO2 PK WND 16031/1957 SNB29 SLP241 P0000 60000 T10721117 56028

More Conditions Fewer Conditions

10-Day Weather Forecast

Almanac

Astronomy

Feb. 27, 2015 Rise Set
Actual Time
Civil Twilight
Nautical Twilight
Astronomical Twilight
Moon
Length of Visible Light
Length of Day
Tomorrow will be .
, % of the Moon is Illuminated

Today's Extremes

State Highs State Lows

Community

WunderPhotos

Upload Photos

1,800,828 photos uploaded!

WunderBlogs® & News

Nearby

Air Quality

  Air Quality AQ Index Pollutant
Not available.

Snow Depth

Station Depth Elevation

Earthquake Activity

City Distance Mag. Time & Date
Minimum magnitude displayed is 2.5.

Coastal Water Temperatures

Place Temperature

Nearby Weather Stations